Time,TemperatureF,DewpointF,PressureIn,WindDirection,WindDirectionDegrees,WindSpeedMPH,WindSpeedGustMPH,Humidity,HourlyPrecipIn,Conditions,Clouds,dailyrainin,SoftwareType,DateUTC
2013-10-29 00:22:00,41.0,36.0,-100.00,North,10,1.0,1.0,81,-99.99,,,-99.99,,2013-10-29 05:22:00,
2013-10-29 00:52:00,41.0,36.0,-100.00,North,5,1.0,1.0,83,-99.99,,,-99.99,,2013-10-29 05:52:00,
2013-10-29 01:26:00,41.0,36.0,-100.00,North,0,1.0,1.0,84,-99.99,,,-99.99,,2013-10-29 06:26:00,
2013-10-29 01:53:00,40.0,36.0,-100.00,North,0,1.0,1.0,87,-99.99,,,-99.99,,2013-10-29 06:53:00,
2013-10-29 02:24:00,39.0,36.0,-100.00,North,0,1.0,1.0,89,-99.99,,,-99.99,,2013-10-29 07:24:00,
2013-10-29 02:55:00,38.0,36.0,-100.00,North,5,0.0,1.0,92,-99.99,,,-99.99,,2013-10-29 07:55:00,
2013-10-29 03:24:00,38.0,36.0,-100.00,North,5,0.0,0.0,93,-99.99,,,-99.99,,2013-10-29 08:24:00,
2013-10-29 03:52:00,38.0,37.0,-100.00,NNE,15,0.0,1.0,93,-99.99,,,-99.99,,2013-10-29 08:52:00,
2013-10-29 04:21:00,38.0,36.0,-100.00,North,10,0.0,1.0,92,-99.99,,,-99.99,,2013-10-29 09:21:00,
2013-10-29 04:53:00,40.0,38.0,-100.00,NNE,25,1.0,1.0,91,-99.99,,,-99.99,,2013-10-29 09:53:00,
2013-10-29 05:23:00,43.0,39.0,-100.00,NE,40,1.0,1.0,87,-99.99,,,-99.99,,2013-10-29 10:23:00,
2013-10-29 05:53:00,44.0,40.0,-100.00,NE,55,1.0,1.0,85,-99.99,,,-99.99,,2013-10-29 10:53:00,
2013-10-29 06:22:00,45.0,40.0,-100.00,East,85,1.0,1.0,82,-99.99,,,-99.99,,2013-10-29 11:22:00,
2013-10-29 06:52:00,45.0,40.0,-100.00,ENE,75,1.0,1.0,83,-99.99,,,-99.99,,2013-10-29 11:52:00,
2013-10-29 07:52:00,45.0,40.0,-100.00,East,90,1.0,1.0,82,-99.99,,,-99.99,,2013-10-29 12:52:00,
2013-10-29 08:21:00,45.0,39.0,-100.00,ENE,75,1.0,1.0,81,-99.99,,,-99.99,,2013-10-29 13:21:00,
2013-10-29 08:52:00,45.0,40.0,-100.00,East,95,1.0,1.0,82,-99.99,,,-99.99,,2013-10-29 13:52:00,
2013-10-29 09:21:00,46.0,40.0,-100.00,East,100,1.0,1.0,80,-99.99,,,-99.99,,2013-10-29 14:21:00,
2013-10-29 09:52:00,46.0,40.0,-100.00,East,85,1.0,1.0,80,-99.99,,,-99.99,,2013-10-29 14:52:00,
2013-10-29 10:22:00,46.0,40.0,-100.00,East,90,1.0,1.0,78,-99.99,,,-99.99,,2013-10-29 15:22:00,
2013-10-29 10:54:00,47.0,40.0,-100.00,ESE,115,1.0,1.0,77,-99.99,,,-99.99,,2013-10-29 15:54:00,
2013-10-29 11:23:00,47.0,40.0,-100.00,ENE,75,1.0,1.0,77,-99.99,,,-99.99,,2013-10-29 16:23:00,
2013-10-29 11:53:00,48.0,40.0,-100.00,ENE,65,1.0,1.0,73,-99.99,,,-99.99,,2013-10-29 16:53:00,
2013-10-29 12:22:00,49.0,40.0,-100.00,East,95,1.0,1.0,71,-99.99,,,-99.99,,2013-10-29 17:22:00,
2013-10-29 12:52:00,50.0,40.0,-100.00,ESE,120,1.0,1.0,70,-99.99,,,-99.99,,2013-10-29 17:52:00,
2013-10-29 13:21:00,50.0,40.0,-100.00,East,95,1.0,1.0,69,-99.99,,,-99.99,,2013-10-29 18:21:00,
2013-10-29 13:42:00,51.0,40.0,-100.00,East,80,1.0,1.0,66,-99.99,,,-99.99,,2013-10-29 18:42:00,
2013-10-29 14:22:00,53.0,39.0,-100.00,ESE,110,1.0,1.0,59,-99.99,,,-99.99,,2013-10-29 19:22:00,
2013-10-29 14:53:00,54.0,38.0,-100.00,SSE,155,1.0,1.0,55,-99.99,,,-99.99,,2013-10-29 19:53:00,
2013-10-29 15:22:00,56.0,38.0,-100.00,SSE,150,1.0,1.0,50,-99.99,,,-99.99,,2013-10-29 20:22:00,
2013-10-29 15:52:00,56.0,35.0,-100.00,ESE,120,1.0,1.0,46,-99.99,,,-99.99,,2013-10-29 20:52:00,
2013-10-29 16:22:00,56.0,37.0,-100.00,East,85,1.0,1.0,48,-99.99,,,-99.99,,2013-10-29 21:22:00,
2013-10-29 16:54:00,54.0,42.0,-100.00,NE,35,1.0,1.0,64,-99.99,,,-99.99,,2013-10-29 21:54:00,
2013-10-29 17:23:00,53.0,41.0,-100.00,NE,45,1.0,1.0,64,-99.99,,,-99.99,,2013-10-29 22:23:00,
2013-10-29 17:53:00,51.0,41.0,-100.00,NE,55,1.0,1.0,67,-99.99,,,-99.99,,2013-10-29 22:53:00,
2013-10-29 18:22:00,50.0,41.0,-100.00,NE,55,1.0,1.0,71,-99.99,,,-99.99,,2013-10-29 23:22:00,
2013-10-29 18:53:00,51.0,41.0,-100.00,East,95,1.0,1.0,70,-99.99,,,-99.99,,2013-10-29 23:53:00,
2013-10-29 19:22:00,49.0,42.0,-100.00,NNE,30,0.0,1.0,77,-99.99,,,-99.99,,2013-10-30 00:22:00,
2013-10-29 19:52:00,48.0,42.0,-100.00,NE,55,1.0,1.0,81,-99.99,,,-99.99,,2013-10-30 00:52:00,
2013-10-29 20:22:00,48.0,43.0,-100.00,NE,45,0.0,1.0,82,-99.99,,,-99.99,,2013-10-30 01:22:00,
2013-10-29 20:52:00,48.0,43.0,-100.00,North,10,0.0,1.0,82,-99.99,,,-99.99,,2013-10-30 01:52:00,
2013-10-29 21:22:00,49.0,43.0,-100.00,NE,35,0.0,1.0,81,-99.99,,,-99.99,,2013-10-30 02:22:00,
2013-10-29 21:52:00,50.0,43.0,-100.00,NNE,20,0.0,1.0,78,-99.99,,,-99.99,,2013-10-30 02:52:00,
2013-10-29 22:21:00,51.0,43.0,-100.00,ESE,110,0.0,1.0,73,-99.99,,,-99.99,,2013-10-30 03:21:00,
2013-10-29 22:54:00,51.0,42.0,-100.00,SE,135,1.0,1.0,71,-99.99,,,-99.99,,2013-10-30 03:54:00,
2013-10-29 23:24:00,50.0,42.0,-100.00,South,170,0.0,0.0,73,-99.99,,,-99.99,,2013-10-30 04:24:00,
2013-10-29 23:54:00,49.0,41.0,-100.00,South,175,0.0,1.0,74,-99.99,,,-99.99,,2013-10-30 04:54:00,